Time,TemperatureF,DewpointF,PressureIn,WindDirection,WindDirectionDegrees,WindSpeedMPH,WindSpeedGustMPH,Humidity,HourlyPrecipIn,Conditions,Clouds,dailyrainin,SolarRadiationWatts/m^2,SoftwareType,DateUTC
2013-01-30 00:01:00,60.0,60.0,-100.00,SSE,168,0.0,4.0,99,0.00,,,0.43,0.000000,,2013-01-30 10:01:00,
2013-01-30 00:11:00,60.0,60.0,-100.00,SSE,168,0.0,4.0,99,0.00,,,0.43,0.000000,,2013-01-30 10:11:00,
2013-01-30 00:21:00,60.0,60.0,-100.00,SSE,168,0.0,4.0,99,0.00,,,0.43,0.000000,,2013-01-30 10:21:00,
2013-01-30 00:31:00,60.0,60.0,-100.00,SSE,168,0.0,4.0,99,0.00,,,0.43,0.000000,,2013-01-30 10:31:00,
2013-01-30 01:02:00,60.0,60.0,-100.00,South,176,0.0,0.0,99,0.00,,,0.43,0.000000,,2013-01-30 11:02:00,
2013-01-30 01:11:00,60.0,60.0,-100.00,South,176,0.0,0.0,99,0.00,,,0.43,0.000000,,2013-01-30 11:11:00,
2013-01-30 01:21:00,60.0,60.0,-100.00,South,176,0.0,0.0,99,0.00,,,0.43,0.000000,,2013-01-30 11:21:00,
2013-01-30 01:32:00,60.0,60.0,-100.00,South,176,0.0,0.0,99,0.00,,,0.43,0.000000,,2013-01-30 11:32:00,
2013-01-30 02:02:00,60.0,60.0,-100.00,ESE,113,0.0,3.0,99,0.01,,,0.44,0.000000,,2013-01-30 12:02:00,
2013-01-30 02:12:00,60.0,60.0,-100.00,ESE,113,0.0,3.0,99,0.01,,,0.44,0.000000,,2013-01-30 12:12:00,
2013-01-30 02:22:00,60.0,60.0,-100.00,ESE,113,0.0,3.0,99,0.01,,,0.44,0.000000,,2013-01-30 12:22:00,
2013-01-30 02:32:00,60.0,60.0,-100.00,ESE,113,0.0,3.0,99,0.01,,,0.44,0.000000,,2013-01-30 12:32:00,
2013-01-30 03:02:00,61.0,61.0,-100.00,ENE,58,0.0,0.0,99,0.00,,,0.44,0.000000,,2013-01-30 13:02:00,
2013-01-30 03:12:00,61.0,61.0,-100.00,ENE,58,0.0,0.0,99,0.00,,,0.44,0.000000,,2013-01-30 13:12:00,
2013-01-30 03:22:00,61.0,61.0,-100.00,ENE,58,0.0,0.0,99,0.00,,,0.44,0.000000,,2013-01-30 13:22:00,
2013-01-30 03:32:00,61.0,61.0,-100.00,ENE,58,0.0,0.0,99,0.00,,,0.44,0.000000,,2013-01-30 13:32:00,
2013-01-30 04:02:00,61.0,61.0,-100.00,ESE,123,0.0,2.0,99,0.00,,,0.44,0.000000,,2013-01-30 14:02:00,
2013-01-30 04:11:00,61.0,61.0,-100.00,ESE,123,0.0,2.0,99,0.00,,,0.44,0.000000,,2013-01-30 14:11:00,
2013-01-30 04:22:00,61.0,61.0,-100.00,ESE,123,0.0,2.0,99,0.00,,,0.44,0.000000,,2013-01-30 14:22:00,
2013-01-30 04:32:00,61.0,61.0,-100.00,ESE,123,0.0,2.0,99,0.00,,,0.44,0.000000,,2013-01-30 14:32:00,
2013-01-30 05:03:00,61.0,61.0,-100.00,West,267,1.0,5.0,99,0.05,,,0.49,0.000000,,2013-01-30 15:03:00,
2013-01-30 05:12:00,61.0,61.0,-100.00,West,267,1.0,5.0,99,0.05,,,0.49,0.000000,,2013-01-30 15:12:00,
2013-01-30 05:22:00,61.0,61.0,-100.00,West,267,1.0,5.0,99,0.05,,,0.49,0.000000,,2013-01-30 15:22:00,
2013-01-30 05:32:00,61.0,61.0,-100.00,West,267,1.0,5.0,99,0.05,,,0.49,0.000000,,2013-01-30 15:32:00,
2013-01-30 06:03:00,61.0,61.0,-100.00,WSW,254,0.0,6.0,99,0.11,,,-99.99,0.000000,,2013-01-30 16:03:00,
2013-01-30 06:12:00,61.0,61.0,-100.00,WSW,254,0.0,6.0,99,0.11,,,-99.99,0.000000,,2013-01-30 16:12:00,
2013-01-30 06:22:00,61.0,61.0,-100.00,WSW,254,0.0,6.0,99,0.11,,,-99.99,0.000000,,2013-01-30 16:22:00,
2013-01-30 06:32:00,61.0,61.0,-100.00,WSW,254,0.0,6.0,99,0.11,,,-99.99,0.000000,,2013-01-30 16:32:00,
2013-01-30 06:52:00,59.0,59.0,-100.00,SSE,160,0.0,3.0,99,0.06,,,0.66,0.000000,,2013-01-30 16:52:00,
2013-01-30 07:02:00,59.0,59.0,-100.00,SSE,160,0.0,3.0,99,0.06,,,0.66,0.000000,,2013-01-30 17:02:00,
2013-01-30 07:12:00,59.0,59.0,-100.00,SSE,160,0.0,3.0,99,0.06,,,0.66,0.000000,,2013-01-30 17:12:00,
2013-01-30 07:22:00,59.0,59.0,-100.00,SSE,160,0.0,3.0,99,0.06,,,0.66,0.000000,,2013-01-30 17:22:00,
2013-01-30 07:31:00,59.0,59.0,-100.00,SSE,160,0.0,3.0,99,0.06,,,0.66,0.000000,,2013-01-30 17:31:00,
2013-01-30 08:02:00,61.0,60.0,-100.00,SSE,165,2.0,4.0,98,0.05,,,0.70,7.000000,,2013-01-30 18:02:00,
2013-01-30 08:12:00,61.0,60.0,-100.00,SSE,165,2.0,4.0,98,0.05,,,0.70,7.000000,,2013-01-30 18:12:00,
2013-01-30 08:22:00,61.0,60.0,-100.00,SSE,165,2.0,4.0,98,0.05,,,0.70,7.000000,,2013-01-30 18:22:00,
2013-01-30 08:32:00,61.0,60.0,-100.00,SSE,165,2.0,4.0,98,0.05,,,0.70,7.000000,,2013-01-30 18:32:00,
2013-01-30 09:02:00,61.0,60.0,-100.00,SSE,161,2.0,5.0,96,0.01,,,0.71,92.000000,,2013-01-30 19:02:00,
2013-01-30 09:12:00,61.0,60.0,-100.00,SSE,161,2.0,5.0,96,0.01,,,0.71,92.000000,,2013-01-30 19:12:00,
2013-01-30 09:22:00,61.0,60.0,-100.00,SSE,161,2.0,5.0,96,0.01,,,0.71,92.000000,,2013-01-30 19:22:00,
2013-01-30 09:32:00,61.0,60.0,-100.00,SSE,161,2.0,5.0,96,0.01,,,0.71,92.000000,,2013-01-30 19:32:00,
2013-01-30 10:03:00,72.0,68.0,-100.00,ENE,76,3.0,4.0,87,0.00,,,0.71,526.000000,,2013-01-30 20:03:00,
2013-01-30 10:11:00,72.0,68.0,-100.00,ENE,76,3.0,4.0,87,0.00,,,0.71,526.000000,,2013-01-30 20:11:00,
2013-01-30 10:21:00,72.0,68.0,-100.00,ENE,76,3.0,4.0,87,0.00,,,0.71,526.000000,,2013-01-30 20:21:00,
2013-01-30 10:32:00,72.0,68.0,-100.00,ENE,76,3.0,4.0,87,0.00,,,0.71,526.000000,,2013-01-30 20:32:00,
2013-01-30 11:03:00,69.0,60.0,-100.00,WNW,295,5.0,9.0,72,0.00,,,0.71,631.000000,,2013-01-30 21:03:00,
2013-01-30 11:12:00,69.0,60.0,-100.00,WNW,295,5.0,9.0,72,0.00,,,0.71,631.000000,,2013-01-30 21:12:00,
2013-01-30 11:22:00,69.0,60.0,-100.00,WNW,295,5.0,9.0,72,0.00,,,0.71,631.000000,,2013-01-30 21:22:00,
2013-01-30 11:32:00,69.0,60.0,-100.00,WNW,295,5.0,9.0,72,0.00,,,0.71,631.000000,,2013-01-30 21:32:00,
2013-01-30 11:52:00,70.0,66.0,-100.00,West,262,7.0,12.0,88,0.00,,,0.71,619.000000,,2013-01-30 21:52:00,
2013-01-30 12:02:00,70.0,66.0,-100.00,West,262,7.0,12.0,88,0.00,,,0.71,619.000000,,2013-01-30 22:02:00,
2013-01-30 12:11:00,70.0,66.0,-100.00,West,262,7.0,12.0,88,0.00,,,0.71,619.000000,,2013-01-30 22:11:00,
2013-01-30 12:22:00,70.0,66.0,-100.00,West,262,7.0,12.0,88,0.00,,,0.71,619.000000,,2013-01-30 22:22:00,
2013-01-30 12:32:00,70.0,66.0,-100.00,West,262,7.0,12.0,88,0.00,,,0.71,619.000000,,2013-01-30 22:32:00,
2013-01-30 13:02:00,67.0,60.0,-100.00,WNW,294,6.0,13.0,79,0.00,,,0.71,630.000000,,2013-01-30 23:02:00,
2013-01-30 13:12:00,67.0,60.0,-100.00,WNW,294,6.0,13.0,79,0.00,,,0.71,630.000000,,2013-01-30 23:12:00,
2013-01-30 13:22:00,67.0,60.0,-100.00,WNW,294,6.0,13.0,79,0.00,,,0.71,630.000000,,2013-01-30 23:22:00,
2013-01-30 13:32:00,67.0,60.0,-100.00,WNW,294,6.0,13.0,79,0.00,,,0.71,630.000000,,2013-01-30 23:32:00,
2013-01-30 14:02:00,68.0,63.0,-100.00,NW,315,6.0,10.0,84,0.00,,,0.71,638.000000,,2013-01-31 00:02:00,
2013-01-30 14:11:00,68.0,63.0,-100.00,NW,315,6.0,10.0,84,0.00,,,0.71,638.000000,,2013-01-31 00:11:00,
2013-01-30 14:21:00,68.0,63.0,-100.00,NW,315,6.0,10.0,84,0.00,,,0.71,638.000000,,2013-01-31 00:21:00,
2013-01-30 14:31:00,68.0,63.0,-100.00,NW,315,6.0,10.0,84,0.00,,,0.71,638.000000,,2013-01-31 00:31:00,
2013-01-30 14:53:00,70.0,65.0,-100.00,North,350,1.0,11.0,85,0.00,,,0.71,446.000000,,2013-01-31 00:53:00,
2013-01-30 15:02:00,70.0,65.0,-100.00,North,350,1.0,11.0,85,0.00,,,0.71,446.000000,,2013-01-31 01:02:00,
2013-01-30 15:11:00,70.0,65.0,-100.00,North,350,1.0,11.0,85,0.00,,,0.71,446.000000,,2013-01-31 01:11:00,
2013-01-30 15:21:00,70.0,65.0,-100.00,North,350,1.0,11.0,85,0.00,,,0.71,446.000000,,2013-01-31 01:21:00,
2013-01-30 15:31:00,70.0,65.0,-100.00,North,350,1.0,11.0,85,0.00,,,0.71,446.000000,,2013-01-31 01:31:00,
2013-01-30 16:01:00,70.0,60.0,-100.00,NNE,25,3.0,8.0,71,0.00,,,0.71,370.000000,,2013-01-31 02:01:00,
2013-01-30 16:11:00,70.0,60.0,-100.00,NNE,25,3.0,8.0,71,0.00,,,0.71,370.000000,,2013-01-31 02:11:00,
2013-01-30 16:21:00,70.0,60.0,-100.00,NNE,25,3.0,8.0,71,0.00,,,0.71,370.000000,,2013-01-31 02:21:00,
2013-01-30 16:32:00,70.0,60.0,-100.00,NNE,25,3.0,8.0,71,0.00,,,0.71,370.000000,,2013-01-31 02:32:00,
2013-01-30 17:02:00,68.0,66.0,-100.00,NNW,327,4.0,9.0,93,0.00,,,0.71,202.000000,,2013-01-31 03:02:00,
2013-01-30 17:11:00,68.0,66.0,-100.00,NNW,327,4.0,9.0,93,0.00,,,0.71,202.000000,,2013-01-31 03:11:00,
2013-01-30 17:21:00,68.0,66.0,-100.00,NNW,327,4.0,9.0,93,0.00,,,0.71,202.000000,,2013-01-31 03:21:00,
2013-01-30 17:31:00,68.0,66.0,-100.00,NNW,327,4.0,9.0,93,0.00,,,0.71,202.000000,,2013-01-31 03:31:00,
2013-01-30 18:02:00,63.0,63.0,-100.00,NNW,328,6.0,11.0,99,0.00,,,0.71,109.000000,,2013-01-31 04:02:00,
2013-01-30 18:11:00,63.0,63.0,-100.00,NNW,328,6.0,11.0,99,0.00,,,0.71,109.000000,,2013-01-31 04:11:00,
2013-01-30 18:22:00,63.0,63.0,-100.00,NNW,328,6.0,11.0,99,0.00,,,0.71,109.000000,,2013-01-31 04:22:00,
2013-01-30 18:31:00,63.0,63.0,-100.00,NNW,328,6.0,11.0,99,0.00,,,0.71,109.000000,,2013-01-31 04:31:00,
2013-01-30 19:03:00,63.0,63.0,-100.00,NNW,344,3.0,9.0,99,0.00,,,0.38,6.000000,,2013-01-31 05:03:00,
2013-01-30 19:11:00,63.0,63.0,-100.00,NNW,344,3.0,9.0,99,0.00,,,0.38,6.000000,,2013-01-31 05:11:00,
2013-01-30 19:21:00,63.0,63.0,-100.00,NNW,344,3.0,9.0,99,0.00,,,0.38,6.000000,,2013-01-31 05:21:00,
2013-01-30 19:31:00,63.0,63.0,-100.00,NNW,344,3.0,9.0,99,0.00,,,0.38,6.000000,,2013-01-31 05:31:00,